sensor_id;sensor_type;location;lat;lon;timestamp;pressure;altitude;pressure_sealevel;temperature;humidity
73918;BME280;63639;52.280;5.162;2023-01-01T00:01:12;100760.88;;;16.01;60.30
73918;BME280;63639;52.280;5.162;2023-01-01T00:03:39;100759.55;;;15.84;60.80
73918;BME280;63639;52.280;5.162;2023-01-01T00:06:08;100778.93;;;16.03;60.55
73918;BME280;63639;52.280;5.162;2023-01-01T00:08:35;100752.03;;;15.82;60.80
73918;BME280;63639;52.280;5.162;2023-01-01T00:11:03;100766.46;;;16.20;60.65
73918;BME280;63639;52.280;5.162;2023-01-01T00:13:30;100764.12;;;16.04;59.44
73918;BME280;63639;52.280;5.162;2023-01-01T00:16:03;100760.51;;;15.85;59.44
73918;BME280;63639;52.280;5.162;2023-01-01T00:18:30;100766.05;;;16.12;59.33
73918;BME280;63639;52.280;5.162;2023-01-01T00:21:01;100756.71;;;15.98;59.47
73918;BME280;63639;52.280;5.162;2023-01-01T00:23:28;100756.64;;;16.13;59.88
73918;BME280;63639;52.280;5.162;2023-01-01T00:25:55;100755.37;;;16.21;58.40
73918;BME280;63639;52.280;5.162;2023-01-01T00:28:22;100758.50;;;16.31;57.94
73918;BME280;63639;52.280;5.162;2023-01-01T00:30:49;100765.24;;;16.12;58.18
73918;BME280;63639;52.280;5.162;2023-01-01T00:33:16;100761.15;;;16.27;58.16
73918;BME280;63639;52.280;5.162;2023-01-01T00:35:43;100755.60;;;16.32;58.09
73918;BME280;63639;52.280;5.162;2023-01-01T00:38:10;100766.52;;;16.44;58.75
73918;BME280;63639;52.280;5.162;2023-01-01T00:40:37;100763.62;;;16.17;58.31
73918;BME280;63639;52.280;5.162;2023-01-01T00:43:03;100771.28;;;16.07;58.91
73918;BME280;63639;52.280;5.162;2023-01-01T00:45:30;100757.26;;;16.16;59.13
73918;BME280;63639;52.280;5.162;2023-01-01T00:47:56;100756.26;;;16.08;59.23
73918;BME280;63639;52.280;5.162;2023-01-01T00:50:23;100752.23;;;16.27;58.28
73918;BME280;63639;52.280;5.162;2023-01-01T00:52:50;100741.34;;;16.37;58.77
73918;BME280;63639;52.280;5.162;2023-01-01T00:55:17;100742.96;;;16.04;59.29
73918;BME280;63639;52.280;5.162;2023-01-01T00:57:44;100744.84;;;16.06;59.02
73918;BME280;63639;52.280;5.162;2023-01-01T01:00:12;100747.07;;;16.03;58.92
73918;BME280;63639;52.280;5.162;2023-01-01T01:02:39;100759.15;;;16.07;59.68
73918;BME280;63639;52.280;5.162;2023-01-01T01:05:07;100760.72;;;16.11;58.91
73918;BME280;63639;52.280;5.162;2023-01-01T01:07:35;100754.33;;;16.10;59.19
73918;BME280;63639;52.280;5.162;2023-01-01T01:10:02;100755.11;;;16.08;58.85
73918;BME280;63639;52.280;5.162;2023-01-01T01:12:29;100749.38;;;16.15;58.73
73918;BME280;63639;52.280;5.162;2023-01-01T01:14:56;100752.10;;;16.03;58.67
73918;BME280;63639;52.280;5.162;2023-01-01T01:17:23;100771.78;;;16.06;58.42
73918;BME280;63639;52.280;5.162;2023-01-01T01:19:49;100762.08;;;16.11;59.07
73918;BME280;63639;52.280;5.162;2023-01-01T01:22:16;100770.13;;;16.07;58.59
73918;BME280;63639;52.280;5.162;2023-01-01T01:24:42;100793.26;;;15.97;58.71
73918;BME280;63639;52.280;5.162;2023-01-01T01:27:09;100799.14;;;16.15;58.51
73918;BME280;63639;52.280;5.162;2023-01-01T01:29:35;100798.71;;;16.21;58.94
73918;BME280;63639;52.280;5.162;2023-01-01T01:32:02;100799.22;;;15.99;59.20
73918;BME280;63639;52.280;5.162;2023-01-01T01:34:29;100814.77;;;15.99;58.72
73918;BME280;63639;52.280;5.162;2023-01-01T01:36:56;100817.63;;;15.72;59.45
73918;BME280;63639;52.280;5.162;2023-01-01T01:39:22;100794.51;;;15.88;59.57
73918;BME280;63639;52.280;5.162;2023-01-01T01:41:50;100787.33;;;15.95;58.77
73918;BME280;63639;52.280;5.162;2023-01-01T01:44:52;100805.32;;;15.96;58.77
73918;BME280;63639;52.280;5.162;2023-01-01T01:47:24;100804.94;;;15.85;59.40
73918;BME280;63639;52.280;5.162;2023-01-01T01:49:54;100805.56;;;15.98;58.71
73918;BME280;63639;52.280;5.162;2023-01-01T01:52:23;100802.26;;;15.97;59.19
73918;BME280;63639;52.280;5.162;2023-01-01T01:54:50;100811.99;;;15.81;59.00
73918;BME280;63639;52.280;5.162;2023-01-01T01:57:17;100806.52;;;16.02;59.04
73918;BME280;63639;52.280;5.162;2023-01-01T01:59:47;100811.38;;;15.64;60.04
73918;BME280;63639;52.280;5.162;2023-01-01T02:02:20;100809.16;;;15.61;60.13
73918;BME280;63639;52.280;5.162;2023-01-01T02:04:48;100804.85;;;15.77;60.01
73918;BME280;63639;52.280;5.162;2023-01-01T02:07:15;100830.18;;;15.56;60.22
73918;BME280;63639;52.280;5.162;2023-01-01T02:09:43;100826.80;;;15.62;60.15
73918;BME280;63639;52.280;5.162;2023-01-01T02:12:10;100832.84;;;15.61;60.46
73918;BME280;63639;52.280;5.162;2023-01-01T02:14:37;100829.14;;;15.79;60.10
73918;BME280;63639;52.280;5.162;2023-01-01T02:17:08;100826.70;;;15.72;59.89
73918;BME280;63639;52.280;5.162;2023-01-01T02:19:43;100821.65;;;15.72;60.01
73918;BME280;63639;52.280;5.162;2023-01-01T02:22:15;100834.33;;;15.64;59.80
73918;BME280;63639;52.280;5.162;2023-01-01T02:24:50;100829.15;;;15.74;59.99
73918;BME280;63639;52.280;5.162;2023-01-01T02:27:28;100827.73;;;15.79;59.68
73918;BME280;63639;52.280;5.162;2023-01-01T02:30:01;100814.99;;;15.85;59.35
73918;BME280;63639;52.280;5.162;2023-01-01T02:32:34;100837.77;;;15.94;58.49
73918;BME280;63639;52.280;5.162;2023-01-01T02:35:07;100834.05;;;15.78;58.83
73918;BME280;63639;52.280;5.162;2023-01-01T02:37:35;100807.81;;;15.95;58.88
73918;BME280;63639;52.280;5.162;2023-01-01T02:40:03;100830.22;;;16.03;58.55
73918;BME280;63639;52.280;5.162;2023-01-01T02:42:31;100836.09;;;15.96;58.13
73918;BME280;63639;52.280;5.162;2023-01-01T02:44:59;100826.80;;;16.15;57.36
73918;BME280;63639;52.280;5.162;2023-01-01T02:47:26;100833.11;;;16.08;57.56
73918;BME280;63639;52.280;5.162;2023-01-01T02:49:56;100826.09;;;15.99;57.74
73918;BME280;63639;52.280;5.162;2023-01-01T02:52:40;100840.09;;;15.81;58.11
73918;BME280;63639;52.280;5.162;2023-01-01T02:55:18;100842.21;;;15.59;58.66
73918;BME280;63639;52.280;5.162;2023-01-01T02:57:51;100838.26;;;15.69;58.82
73918;BME280;63639;52.280;5.162;2023-01-01T03:00:21;100829.50;;;15.69;58.59
73918;BME280;63639;52.280;5.162;2023-01-01T03:02:58;100850.71;;;15.69;58.55
73918;BME280;63639;52.280;5.162;2023-01-01T03:05:37;100849.36;;;15.46;59.20
73918;BME280;63639;52.280;5.162;2023-01-01T03:08:09;100846.15;;;15.49;59.52
73918;BME280;63639;52.280;5.162;2023-01-01T03:10:41;100854.44;;;15.62;59.54
73918;BME280;63639;52.280;5.162;2023-01-01T03:13:16;100863.90;;;15.53;59.21
73918;BME280;63639;52.280;5.162;2023-01-01T03:15:50;100860.88;;;15.58;59.18
73918;BME280;63639;52.280;5.162;2023-01-01T03:18:26;100855.15;;;15.57;59.49
73918;BME280;63639;52.280;5.162;2023-01-01T03:20:58;100863.39;;;15.83;58.86
73918;BME280;63639;52.280;5.162;2023-01-01T03:23:32;100860.41;;;15.80;58.93
73918;BME280;63639;52.280;5.162;2023-01-01T03:26:03;100866.02;;;15.77;58.83
73918;BME280;63639;52.280;5.162;2023-01-01T03:28:35;100863.62;;;15.76;59.18
73918;BME280;63639;52.280;5.162;2023-01-01T03:31:05;100870.54;;;15.75;59.10
73918;BME280;63639;52.280;5.162;2023-01-01T03:33:34;100874.71;;;15.55;60.05
73918;BME280;63639;52.280;5.162;2023-01-01T03:36:06;100859.33;;;15.54;59.82
73918;BME280;63639;52.280;5.162;2023-01-01T03:38:39;100869.95;;;15.52;60.58
73918;BME280;63639;52.280;5.162;2023-01-01T03:41:11;100886.98;;;15.57;59.90
73918;BME280;63639;52.280;5.162;2023-01-01T03:43:43;100884.89;;;15.61;60.50
73918;BME280;63639;52.280;5.162;2023-01-01T03:46:13;100891.77;;;15.32;61.43
73918;BME280;63639;52.280;5.162;2023-01-01T03:48:42;100889.79;;;15.17;62.07
73918;BME280;63639;52.280;5.162;2023-01-01T03:51:16;100903.59;;;15.66;60.75
73918;BME280;63639;52.280;5.162;2023-01-01T03:53:46;100907.04;;;15.75;60.29
73918;BME280;63639;52.280;5.162;2023-01-01T03:56:18;100904.29;;;15.46;60.96
73918;BME280;63639;52.280;5.162;2023-01-01T03:58:51;100903.77;;;15.60;61.37
73918;BME280;63639;52.280;5.162;2023-01-01T04:01:25;100908.50;;;15.70;60.81
73918;BME280;63639;52.280;5.162;2023-01-01T04:03:52;100919.36;;;15.40;61.93
73918;BME280;63639;52.280;5.162;2023-01-01T04:06:19;100922.66;;;15.62;61.62
73918;BME280;63639;52.280;5.162;2023-01-01T04:08:47;100923.42;;;15.52;61.86
73918;BME280;63639;52.280;5.162;2023-01-01T04:11:19;100917.43;;;15.26;63.37
73918;BME280;63639;52.280;5.162;2023-01-01T04:13:46;100933.51;;;15.52;62.70
73918;BME280;63639;52.280;5.162;2023-01-01T04:16:13;100920.41;;;15.40;62.26
73918;BME280;63639;52.280;5.162;2023-01-01T04:18:40;100930.15;;;15.08;62.94
73918;BME280;63639;52.280;5.162;2023-01-01T04:21:06;100935.08;;;15.34;62.05
73918;BME280;63639;52.280;5.162;2023-01-01T04:23:33;100943.52;;;15.44;61.60
73918;BME280;63639;52.280;5.162;2023-01-01T04:26:00;100952.89;;;15.57;60.78
73918;BME280;63639;52.280;5.162;2023-01-01T04:28:27;100965.81;;;15.11;62.07
73918;BME280;63639;52.280;5.162;2023-01-01T04:30:54;100970.18;;;15.14;62.01
73918;BME280;63639;52.280;5.162;2023-01-01T04:33:21;100964.62;;;15.66;60.67
73918;BME280;63639;52.280;5.162;2023-01-01T04:35:47;100972.24;;;15.49;60.22
73918;BME280;63639;52.280;5.162;2023-01-01T04:38:14;100987.12;;;15.60;59.74
73918;BME280;63639;52.280;5.162;2023-01-01T04:40:41;100988.02;;;15.84;58.96
73918;BME280;63639;52.280;5.162;2023-01-01T04:43:08;100995.73;;;15.62;58.89
73918;BME280;63639;52.280;5.162;2023-01-01T04:45:34;101006.82;;;15.62;59.18
73918;BME280;63639;52.280;5.162;2023-01-01T04:48:03;101000.35;;;15.70;58.32
73918;BME280;63639;52.280;5.162;2023-01-01T04:50:29;101008.09;;;15.77;58.72
73918;BME280;63639;52.280;5.162;2023-01-01T04:52:57;101030.70;;;15.46;58.99
73918;BME280;63639;52.280;5.162;2023-01-01T04:55:24;101018.80;;;14.88;60.56
73918;BME280;63639;52.280;5.162;2023-01-01T04:57:51;101023.24;;;15.02;60.21
73918;BME280;63639;52.280;5.162;2023-01-01T05:00:18;101018.32;;;15.29;59.82
73918;BME280;63639;52.280;5.162;2023-01-01T05:02:45;101032.81;;;15.13;59.16
73918;BME280;63639;52.280;5.162;2023-01-01T05:05:11;101025.67;;;15.31;59.34
73918;BME280;63639;52.280;5.162;2023-01-01T05:07:38;101034.70;;;15.08;60.42
73918;BME280;63639;52.280;5.162;2023-01-01T05:10:06;101019.31;;;15.06;61.07
73918;BME280;63639;52.280;5.162;2023-01-01T05:12:33;101027.16;;;15.27;61.29
73918;BME280;63639;52.280;5.162;2023-01-01T05:15:00;101030.51;;;15.16;61.54
73918;BME280;63639;52.280;5.162;2023-01-01T05:17:26;101026.16;;;15.13;62.40
73918;BME280;63639;52.280;5.162;2023-01-01T05:19:53;101028.48;;;14.79;63.84
73918;BME280;63639;52.280;5.162;2023-01-01T05:22:20;101032.80;;;14.88;64.52
73918;BME280;63639;52.280;5.162;2023-01-01T05:24:47;101028.86;;;14.83;64.38
73918;BME280;63639;52.280;5.162;2023-01-01T05:27:13;101038.70;;;14.42;64.57
73918;BME280;63639;52.280;5.162;2023-01-01T05:29:40;101038.63;;;14.42;64.54
73918;BME280;63639;52.280;5.162;2023-01-01T05:32:07;101035.14;;;14.36;64.71
73918;BME280;63639;52.280;5.162;2023-01-01T05:34:34;101035.02;;;14.76;63.41
73918;BME280;63639;52.280;5.162;2023-01-01T05:37:00;101029.82;;;15.09;62.27
73918;BME280;63639;52.280;5.162;2023-01-01T05:39:27;101043.79;;;14.82;62.80
73918;BME280;63639;52.280;5.162;2023-01-01T05:41:54;101050.08;;;15.08;62.47
73918;BME280;63639;52.280;5.162;2023-01-01T05:44:22;101051.78;;;14.87;62.63
73918;BME280;63639;52.280;5.162;2023-01-01T05:46:48;101053.95;;;14.84;62.44
73918;BME280;63639;52.280;5.162;2023-01-01T05:49:15;101053.86;;;14.70;62.12
73918;BME280;63639;52.280;5.162;2023-01-01T05:51:42;101063.96;;;14.71;62.22
73918;BME280;63639;52.280;5.162;2023-01-01T05:54:09;101060.33;;;14.35;62.69
73918;BME280;63639;52.280;5.162;2023-01-01T05:56:36;101064.67;;;14.44;63.12
73918;BME280;63639;52.280;5.162;2023-01-01T05:59:03;101092.59;;;14.53;62.74
73918;BME280;63639;52.280;5.162;2023-01-01T06:01:30;101103.10;;;14.29;62.98
73918;BME280;63639;52.280;5.162;2023-01-01T06:03:58;101096.03;;;14.11;63.32
73918;BME280;63639;52.280;5.162;2023-01-01T06:06:27;101097.30;;;14.01;63.76
73918;BME280;63639;52.280;5.162;2023-01-01T06:08:56;101098.00;;;14.24;63.01
73918;BME280;63639;52.280;5.162;2023-01-01T06:11:24;101109.10;;;14.60;62.43
73918;BME280;63639;52.280;5.162;2023-01-01T06:13:51;101120.18;;;14.30;62.88
73918;BME280;63639;52.280;5.162;2023-01-01T06:16:17;101111.63;;;14.27;62.52
73918;BME280;63639;52.280;5.162;2023-01-01T06:18:44;101126.13;;;14.02;63.19
73918;BME280;63639;52.280;5.162;2023-01-01T06:21:13;101128.28;;;13.85;63.57
73918;BME280;63639;52.280;5.162;2023-01-01T06:23:41;101125.37;;;14.04;63.49
73918;BME280;63639;52.280;5.162;2023-01-01T06:26:10;101124.89;;;14.09;63.05
73918;BME280;63639;52.280;5.162;2023-01-01T06:28:38;101137.74;;;14.30;62.32
73918;BME280;63639;52.280;5.162;2023-01-01T06:31:07;101133.39;;;14.56;61.67
73918;BME280;63639;52.280;5.162;2023-01-01T06:33:35;101151.38;;;14.50;61.32
73918;BME280;63639;52.280;5.162;2023-01-01T06:36:03;101146.72;;;14.57;61.77
73918;BME280;63639;52.280;5.162;2023-01-01T06:38:31;101157.22;;;14.80;60.86
73918;BME280;63639;52.280;5.162;2023-01-01T06:41:00;101161.46;;;14.69;61.61
73918;BME280;63639;52.280;5.162;2023-01-01T06:43:29;101155.63;;;14.55;62.17
73918;BME280;63639;52.280;5.162;2023-01-01T06:46:01;101170.45;;;14.58;62.21
73918;BME280;63639;52.280;5.162;2023-01-01T06:48:29;101174.38;;;14.25;63.29
73918;BME280;63639;52.280;5.162;2023-01-01T06:50:56;101187.93;;;14.35;63.29
73918;BME280;63639;52.280;5.162;2023-01-01T06:53:24;101163.81;;;14.39;63.20
73918;BME280;63639;52.280;5.162;2023-01-01T06:55:51;101166.76;;;14.44;62.97
73918;BME280;63639;52.280;5.162;2023-01-01T06:58:19;101173.09;;;14.68;62.41
73918;BME280;63639;52.280;5.162;2023-01-01T07:00:45;101173.09;;;14.71;62.49
73918;BME280;63639;52.280;5.162;2023-01-01T07:03:12;101184.79;;;14.57;62.68
73918;BME280;63639;52.280;5.162;2023-01-01T07:05:39;101190.30;;;14.50;62.81
73918;BME280;63639;52.280;5.162;2023-01-01T07:08:06;101200.34;;;14.79;61.89
73918;BME280;63639;52.280;5.162;2023-01-01T07:10:33;101221.06;;;14.66;62.08
73918;BME280;63639;52.280;5.162;2023-01-01T07:13:00;101228.70;;;14.52;62.50
73918;BME280;63639;52.280;5.162;2023-01-01T07:15:26;101236.72;;;14.61;61.94
73918;BME280;63639;52.280;5.162;2023-01-01T07:17:53;101233.73;;;14.32;62.95
73918;BME280;63639;52.280;5.162;2023-01-01T07:20:20;101241.54;;;14.59;62.01
73918;BME280;63639;52.280;5.162;2023-01-01T07:22:47;101267.10;;;14.70;61.80
73918;BME280;63639;52.280;5.162;2023-01-01T07:25:14;101248.16;;;14.11;63.08
73918;BME280;63639;52.280;5.162;2023-01-01T07:27:41;101250.43;;;13.95;63.65
73918;BME280;63639;52.280;5.162;2023-01-01T07:30:08;101255.95;;;14.10;63.28
73918;BME280;63639;52.280;5.162;2023-01-01T07:32:35;101259.94;;;13.79;63.96
73918;BME280;63639;52.280;5.162;2023-01-01T07:35:02;101273.11;;;13.97;63.55
73918;BME280;63639;52.280;5.162;2023-01-01T07:37:29;101279.25;;;14.27;63.22
73918;BME280;63639;52.280;5.162;2023-01-01T07:39:55;101280.10;;;14.54;62.14
73918;BME280;63639;52.280;5.162;2023-01-01T07:42:22;101277.25;;;14.42;62.06
73918;BME280;63639;52.280;5.162;2023-01-01T07:44:49;101281.36;;;14.25;62.78
73918;BME280;63639;52.280;5.162;2023-01-01T07:47:20;101277.11;;;13.88;64.39
73918;BME280;63639;52.280;5.162;2023-01-01T07:49:47;101304.08;;;14.11;63.34
73918;BME280;63639;52.280;5.162;2023-01-01T07:52:14;101318.00;;;13.61;65.45
73918;BME280;63639;52.280;5.162;2023-01-01T07:54:40;101314.65;;;13.60;65.25
73918;BME280;63639;52.280;5.162;2023-01-01T07:57:07;101323.44;;;13.92;63.99
73918;BME280;63639;52.280;5.162;2023-01-01T07:59:34;101331.56;;;14.24;63.60
73918;BME280;63639;52.280;5.162;2023-01-01T08:02:01;101351.09;;;13.67;64.72
73918;BME280;63639;52.280;5.162;2023-01-01T08:04:28;101346.51;;;13.79;64.14
73918;BME280;63639;52.280;5.162;2023-01-01T08:06:55;101343.78;;;13.96;64.19
73918;BME280;63639;52.280;5.162;2023-01-01T08:09:21;101351.84;;;14.01;63.71
73918;BME280;63639;52.280;5.162;2023-01-01T08:11:48;101358.74;;;14.28;62.61
73918;BME280;63639;52.280;5.162;2023-01-01T08:14:15;101372.48;;;13.97;62.88
73918;BME280;63639;52.280;5.162;2023-01-01T08:16:42;101369.67;;;13.75;63.82
73918;BME280;63639;52.280;5.162;2023-01-01T08:19:09;101377.42;;;13.78;63.56
73918;BME280;63639;52.280;5.162;2023-01-01T08:21:35;101372.69;;;13.75;63.50
73918;BME280;63639;52.280;5.162;2023-01-01T08:24:02;101372.52;;;13.72;63.50
73918;BME280;63639;52.280;5.162;2023-01-01T08:26:31;101375.12;;;13.46;64.11
73918;BME280;63639;52.280;5.162;2023-01-01T08:29:01;101373.77;;;13.30;64.77
73918;BME280;63639;52.280;5.162;2023-01-01T08:31:28;101373.96;;;13.45;64.64
73918;BME280;63639;52.280;5.162;2023-01-01T08:33:55;101379.95;;;13.46;63.95
73918;BME280;63639;52.280;5.162;2023-01-01T08:36:22;101365.01;;;13.63;63.63
73918;BME280;63639;52.280;5.162;2023-01-01T08:38:49;101370.80;;;13.52;63.65
73918;BME280;63639;52.280;5.162;2023-01-01T08:41:15;101373.53;;;13.51;63.88
73918;BME280;63639;52.280;5.162;2023-01-01T08:43:42;101368.55;;;13.56;63.64
73918;BME280;63639;52.280;5.162;2023-01-01T08:46:09;101382.59;;;13.62;63.23
73918;BME280;63639;52.280;5.162;2023-01-01T08:48:36;101387.27;;;13.52;63.74
73918;BME280;63639;52.280;5.162;2023-01-01T08:51:03;101387.52;;;13.85;62.57
73918;BME280;63639;52.280;5.162;2023-01-01T08:53:31;101396.75;;;13.83;62.33
73918;BME280;63639;52.280;5.162;2023-01-01T08:56:00;101397.37;;;13.96;62.34
73918;BME280;63639;52.280;5.162;2023-01-01T08:58:26;101404.14;;;14.19;61.68
73918;BME280;63639;52.280;5.162;2023-01-01T09:00:53;101404.50;;;14.13;61.43
73918;BME280;63639;52.280;5.162;2023-01-01T09:03:20;101401.60;;;13.98;61.87
73918;BME280;63639;52.280;5.162;2023-01-01T09:05:47;101408.96;;;14.00;61.63
73918;BME280;63639;52.280;5.162;2023-01-01T09:08:14;101413.48;;;13.96;61.95
73918;BME280;63639;52.280;5.162;2023-01-01T09:10:42;101413.49;;;14.05;61.54
73918;BME280;63639;52.280;5.162;2023-01-01T09:13:09;101419.11;;;14.15;61.21
73918;BME280;63639;52.280;5.162;2023-01-01T09:15:36;101417.27;;;13.91;61.80
73918;BME280;63639;52.280;5.162;2023-01-01T09:18:03;101415.67;;;13.88;62.01
73918;BME280;63639;52.280;5.162;2023-01-01T09:20:30;101425.67;;;13.31;63.62
73918;BME280;63639;52.280;5.162;2023-01-01T09:22:57;101418.28;;;13.30;64.01
73918;BME280;63639;52.280;5.162;2023-01-01T09:25:24;101402.66;;;13.55;63.64
73918;BME280;63639;52.280;5.162;2023-01-01T09:27:56;101404.11;;;13.46;63.44
73918;BME280;63639;52.280;5.162;2023-01-01T09:30:22;101404.29;;;13.55;63.13
73918;BME280;63639;52.280;5.162;2023-01-01T09:32:49;101404.86;;;13.77;63.02
73918;BME280;63639;52.280;5.162;2023-01-01T09:35:16;101425.20;;;13.71;62.91
73918;BME280;63639;52.280;5.162;2023-01-01T09:37:43;101427.76;;;13.78;62.79
73918;BME280;63639;52.280;5.162;2023-01-01T09:40:23;101418.51;;;14.01;62.64
73918;BME280;63639;52.280;5.162;2023-01-01T09:43:03;101431.26;;;13.80;62.74
73918;BME280;63639;52.280;5.162;2023-01-01T09:45:36;101428.27;;;14.16;62.15
73918;BME280;63639;52.280;5.162;2023-01-01T09:48:10;101428.80;;;14.68;60.70
73918;BME280;63639;52.280;5.162;2023-01-01T09:50:40;101437.28;;;14.20;61.31
73918;BME280;63639;52.280;5.162;2023-01-01T09:53:12;101440.12;;;13.93;62.18
73918;BME280;63639;52.280;5.162;2023-01-01T09:55:45;101447.05;;;13.80;63.04
73918;BME280;63639;52.280;5.162;2023-01-01T09:58:14;101467.93;;;13.81;62.88
73918;BME280;63639;52.280;5.162;2023-01-01T10:00:42;101454.56;;;13.78;62.88
73918;BME280;63639;52.280;5.162;2023-01-01T10:03:21;101456.24;;;13.91;63.27
73918;BME280;63639;52.280;5.162;2023-01-01T10:05:55;101462.85;;;13.93;62.70
73918;BME280;63639;52.280;5.162;2023-01-01T10:08:36;101470.21;;;14.17;61.99
73918;BME280;63639;52.280;5.162;2023-01-01T10:11:11;101475.78;;;14.07;62.12
73918;BME280;63639;52.280;5.162;2023-01-01T10:13:43;101469.49;;;13.88;62.80
73918;BME280;63639;52.280;5.162;2023-01-01T10:16:14;101461.97;;;14.16;62.41
73918;BME280;63639;52.280;5.162;2023-01-01T10:18:44;101460.48;;;14.29;61.82
73918;BME280;63639;52.280;5.162;2023-01-01T10:21:15;101475.90;;;14.17;62.01
73918;BME280;63639;52.280;5.162;2023-01-01T10:23:48;101466.00;;;13.88;63.22
73918;BME280;63639;52.280;5.162;2023-01-01T10:26:18;101456.22;;;14.27;62.22
73918;BME280;63639;52.280;5.162;2023-01-01T10:28:50;101449.28;;;14.27;61.99
73918;BME280;63639;52.280;5.162;2023-01-01T10:31:29;101439.14;;;14.21;62.12
73918;BME280;63639;52.280;5.162;2023-01-01T10:33:57;101435.46;;;13.87;63.53
73918;BME280;63639;52.280;5.162;2023-01-01T10:36:25;101422.64;;;14.03;63.47
73918;BME280;63639;52.280;5.162;2023-01-01T10:38:52;101425.82;;;14.24;62.54
73918;BME280;63639;52.280;5.162;2023-01-01T10:41:19;101427.30;;;14.35;62.94
73918;BME280;63639;52.280;5.162;2023-01-01T10:43:46;101428.12;;;14.10;63.85
73918;BME280;63639;52.280;5.162;2023-01-01T10:46:18;101428.48;;;14.25;63.37
73918;BME280;63639;52.280;5.162;2023-01-01T10:49:05;101433.71;;;14.25;63.52
73918;BME280;63639;52.280;5.162;2023-01-01T10:51:34;101453.84;;;14.45;63.34
73918;BME280;63639;52.280;5.162;2023-01-01T10:54:03;101469.11;;;14.46;63.48
73918;BME280;63639;52.280;5.162;2023-01-01T10:56:39;101472.01;;;14.59;62.95
73918;BME280;63639;52.280;5.162;2023-01-01T10:59:31;101493.65;;;14.08;65.32
73918;BME280;63639;52.280;5.162;2023-01-01T11:02:13;101503.84;;;13.94;66.00
73918;BME280;63639;52.280;5.162;2023-01-01T11:04:41;101489.73;;;14.01;65.85
73918;BME280;63639;52.280;5.162;2023-01-01T11:07:08;101488.83;;;14.16;65.51
73918;BME280;63639;52.280;5.162;2023-01-01T11:09:34;101489.38;;;14.18;65.54
73918;BME280;63639;52.280;5.162;2023-01-01T11:12:03;101477.84;;;14.25;65.43
73918;BME280;63639;52.280;5.162;2023-01-01T11:14:37;101482.81;;;14.29;65.47
73918;BME280;63639;52.280;5.162;2023-01-01T11:17:04;101486.19;;;14.38;65.71
73918;BME280;63639;52.280;5.162;2023-01-01T11:19:33;101495.69;;;14.74;64.84
73918;BME280;63639;52.280;5.162;2023-01-01T11:22:00;101487.02;;;14.48;65.20
73918;BME280;63639;52.280;5.162;2023-01-01T11:24:29;101495.37;;;14.33;66.06
73918;BME280;63639;52.280;5.162;2023-01-01T11:27:11;101493.49;;;14.21;67.15
73918;BME280;63639;52.280;5.162;2023-01-01T11:29:38;101498.30;;;14.35;66.80
73918;BME280;63639;52.280;5.162;2023-01-01T11:32:06;101507.21;;;14.30;66.62
73918;BME280;63639;52.280;5.162;2023-01-01T11:34:36;101503.72;;;13.96;68.15
73918;BME280;63639;52.280;5.162;2023-01-01T11:37:21;101503.56;;;13.87;68.59
73918;BME280;63639;52.280;5.162;2023-01-01T11:39:50;101510.97;;;14.19;67.74
73918;BME280;63639;52.280;5.162;2023-01-01T11:42:20;101504.72;;;13.99;68.41
73918;BME280;63639;52.280;5.162;2023-01-01T11:44:50;101502.32;;;14.32;67.79
73918;BME280;63639;52.280;5.162;2023-01-01T11:47:23;101494.30;;;14.13;68.18
73918;BME280;63639;52.280;5.162;2023-01-01T11:49:54;101489.62;;;14.18;68.31
73918;BME280;63639;52.280;5.162;2023-01-01T11:52:28;101486.58;;;14.09;68.52
73918;BME280;63639;52.280;5.162;2023-01-01T11:55:07;101490.08;;;14.49;67.66
73918;BME280;63639;52.280;5.162;2023-01-01T11:57:37;101498.91;;;14.44;67.45
73918;BME280;63639;52.280;5.162;2023-01-01T12:00:12;101491.29;;;14.72;66.95
73918;BME280;63639;52.280;5.162;2023-01-01T12:02:46;101495.85;;;14.50;67.17
73918;BME280;63639;52.280;5.162;2023-01-01T12:05:18;101507.62;;;14.73;66.42
73918;BME280;63639;52.280;5.162;2023-01-01T12:07:46;101507.51;;;14.71;66.46
73918;BME280;63639;52.280;5.162;2023-01-01T12:10:18;101506.99;;;14.52;67.36
73918;BME280;63639;52.280;5.162;2023-01-01T12:12:50;101518.28;;;14.19;68.51
73918;BME280;63639;52.280;5.162;2023-01-01T12:15:24;101525.40;;;14.24;68.87
73918;BME280;63639;52.280;5.162;2023-01-01T12:17:59;101525.98;;;14.32;68.88
73918;BME280;63639;52.280;5.162;2023-01-01T12:20:29;101526.63;;;14.42;68.52
73918;BME280;63639;52.280;5.162;2023-01-01T12:22:58;101524.49;;;14.46;68.15
73918;BME280;63639;52.280;5.162;2023-01-01T12:25:30;101514.84;;;14.41;68.51
73918;BME280;63639;52.280;5.162;2023-01-01T12:28:03;101506.08;;;14.53;68.54
73918;BME280;63639;52.280;5.162;2023-01-01T12:30:39;101509.27;;;14.76;67.94
73918;BME280;63639;52.280;5.162;2023-01-01T12:33:23;101507.55;;;14.50;68.58
73918;BME280;63639;52.280;5.162;2023-01-01T12:36:02;101511.80;;;14.42;69.38
73918;BME280;63639;52.280;5.162;2023-01-01T12:38:46;101506.24;;;14.55;68.91
73918;BME280;63639;52.280;5.162;2023-01-01T12:41:31;101505.76;;;14.23;69.83
73918;BME280;63639;52.280;5.162;2023-01-01T12:44:14;101503.58;;;14.28;69.66
73918;BME280;63639;52.280;5.162;2023-01-01T12:46:47;101500.26;;;14.40;69.50
73918;BME280;63639;52.280;5.162;2023-01-01T12:49:37;101511.16;;;14.42;69.29
73918;BME280;63639;52.280;5.162;2023-01-01T12:52:17;101503.79;;;14.18;70.17
73918;BME280;63639;52.280;5.162;2023-01-01T12:55:22;101504.11;;;14.20;69.83
73918;BME280;63639;52.280;5.162;2023-01-01T12:57:55;101514.02;;;14.61;68.15
73918;BME280;63639;52.280;5.162;2023-01-01T13:00:23;101528.63;;;14.39;68.81
73918;BME280;63639;52.280;5.162;2023-01-01T13:02:54;101521.29;;;14.43;68.80